USCGC Eagle — NRCB — position and weather

sailwx.info

Track history (hours):
 
Tides and Currents Weather Stations Pressure Air Temp Water Temp Dewpoint Dewpoint Depression Visibility Wind Speed Wind Dir Waves Ship Positions

USCGC Eagle (United States)

Training ship of US Coast Guard Academy, and only square-rigger in active service in the US armed services. Ex German ship Horst Wessel.

Ship's website: http://www.cga.edu/eagle/

Last reported at 2017-Jun-22 22:55 UTC. Time now 2017-Jul-28 06:32 UTC.
Position N 42°41' W 070°16'.
Warning: this ship's position is 35 days out of date.

Type: Military. MMSI: 303990000.

Date/timePositionNaut miles runAvg speedWind from/ knotsBaromVisibWave heightAir tempDewpointWater temp
2017-Jun-22 22:55N 42°41' W 070°16'410.0
2017-Jun-22 22:30N 42°39' W 070°21'5 9.3
2017-Jun-22 22:00N 42°38' W 070°27'4 7.0
2017-Jun-22 21:30N 42°37' W 070°32'2 3.8
2017-Jun-22 21:00N 42°37' W 070°34'0 0.2
2017-Jun-22 20:30N 42°37' W 070°34'1 1.7
2017-Jun-22 20:01N 42°36' W 070°35'2 4.4
2017-Jun-22 19:30N 42°34' W 070°36'2 3.2
2017-Jun-22 19:00N 42°33' W 070°38'1 2.8
2017-Jun-22 18:30N 42°33' W 070°39'1 2.2
2017-Jun-22 18:00N 42°32' W 070°41'0 0.4
2017-Jun-22 17:30N 42°32' W 070°41'13 5.3
2017-Jun-22 15:02N 42°23' W 070°53'2 5.2
2017-Jun-22 14:41N 42°22' W 070°55'1 5.6
2017-Jun-22 14:30N 42°21' W 070°56'  
2017-Jun-17 14:49N 42°20' W 070°57'1 4.4
2017-Jun-17 14:30N 42°21' W 070°56'13 0.6
2017-Jun-16 18:05N 42°23' W 070°39'2 6.3
2017-Jun-16 17:50N 42°23' W 070°37'  
Track history (hours):
 
Tides and Currents Weather Stations Pressure Air Temp Water Temp Dewpoint Dewpoint Depression Visibility Wind Speed Wind Dir Waves Ship Positions

USCGC Eagle (United States)

Training ship of US Coast Guard Academy, and only square-rigger in active service in the US armed services. Ex German ship Horst Wessel.

Ship's website: http://www.cga.edu/eagle/

Last reported at 2017-Jun-22 22:55 UTC. Time now 2017-Jul-28 06:32 UTC.
Position N 42°41' W 070°16'.
Warning: this ship's position is 35 days out of date.

Type: Military. MMSI: 303990000.

Date/timePositionNaut miles runAvg speedWind from/ knotsBaromVisibWave heightAir tempDewpointWater temp
2017-Jun-22 22:55N 42°41' W 070°16'410.0
2017-Jun-22 22:30N 42°39' W 070°21'5 9.3
2017-Jun-22 22:00N 42°38' W 070°27'4 7.0
2017-Jun-22 21:30N 42°37' W 070°32'2 3.8
2017-Jun-22 21:00N 42°37' W 070°34'0 0.2
2017-Jun-22 20:30N 42°37' W 070°34'1 1.7
2017-Jun-22 20:01N 42°36' W 070°35'2 4.4
2017-Jun-22 19:30N 42°34' W 070°36'2 3.2
2017-Jun-22 19:00N 42°33' W 070°38'1 2.8
2017-Jun-22 18:30N 42°33' W 070°39'1 2.2
2017-Jun-22 18:00N 42°32' W 070°41'0 0.4
2017-Jun-22 17:30N 42°32' W 070°41'13 5.3
2017-Jun-22 15:02N 42°23' W 070°53'2 5.2
2017-Jun-22 14:41N 42°22' W 070°55'1 5.6
2017-Jun-22 14:30N 42°21' W 070°56'  
2017-Jun-17 14:49N 42°20' W 070°57'1 4.4
2017-Jun-17 14:30N 42°21' W 070°56'13 0.6
2017-Jun-16 18:05N 42°23' W 070°39'2 6.3
2017-Jun-16 17:50N 42°23' W 070°37'  

Dump ship's entire track history